Time;durP1;ratioP1;P1;durP2;ratioP2;P2;SDS_P1;SDS_P2;PMS_P1;PMS_P2;Temp;Humidity;BMP_temperature;BMP_pressure;BME280_temperature;BME280_humidity;BME280_pressure;Samples;Min_cycle;Max_cycle;Signal;HPM_P1;HPM_P2
2022/07/17 00:00:01;;;;;;;0.10;0.10;;;;;;;;;;5071371;28;20051;-81
2022/07/17 00:02:27;;;;;;;0.10;0.10;;;;;;;;;;5071413;28;20028;-81
2022/07/17 00:04:53;;;;;;;0.10;0.10;;;;;;;;;;5071599;28;20107;-81
2022/07/17 00:07:19;;;;;;;0.10;0.10;;;;;;;;;;5071239;28;20060;-81
2022/07/17 00:09:45;;;;;;;0.10;0.10;;;;;;;;;;5071429;28;20025;-81
2022/07/17 00:12:11;;;;;;;0.10;0.10;;;;;;;;;;5071230;28;20077;-81
2022/07/17 00:14:37;;;;;;;0.10;0.10;;;;;;;;;;5082276;28;20074;-81
2022/07/17 00:17:05;;;;;;;0.10;0.10;;;;;;;;;;5091590;28;20023;-82
2022/07/17 00:19:31;;;;;;;0.10;0.10;;;;;;;;;;5091315;28;20480;-83
2022/07/17 00:21:57;;;;;;;0.10;0.10;;;;;;;;;;5091583;28;20033;-83
2022/07/17 00:24:23;;;;;;;0.10;0.10;;;;;;;;;;5091099;28;20016;-83
2022/07/17 00:26:50;;;;;;;0.10;0.10;;;;;;;;;;5091294;28;20046;-82
2022/07/17 00:29:16;;;;;;;0.10;0.10;;;;;;;;;;5074270;28;20074;-84
2022/07/17 00:31:42;;;;;;;0.10;0.10;;;;;;;;;;5071171;28;20106;-82
2022/07/17 00:34:08;;;;;;;0.10;0.10;;;;;;;;;;5070226;28;20017;-82
2022/07/17 00:36:34;;;;;;;0.10;0.10;;;;;;;;;;5077318;28;20028;-82
2022/07/17 00:39:00;;;;;;;0.10;0.10;;;;;;;;;;5091236;28;20081;-82
2022/07/17 00:41:26;;;;;;;0.10;0.10;;;;;;;;;;5091060;28;20565;-82
2022/07/17 00:43:52;;;;;;;0.10;0.10;;;;;;;;;;5091215;28;20024;-82
2022/07/17 00:46:18;;;;;;;0.10;0.10;;;;;;;;;;5090961;28;20030;-82
2022/07/17 00:48:44;;;;;;;0.10;0.10;;;;;;;;;;5091283;28;20095;-82
2022/07/17 00:51:13;;;;;;;0.10;0.10;;;;;;;;;;5085434;28;20055;-83
2022/07/17 00:53:43;;;;;;;0.10;0.10;;;;;;;;;;5071267;28;20098;-84
2022/07/17 00:56:10;;;;;;;0.10;0.10;;;;;;;;;;5071079;28;20062;-82
2022/07/17 00:58:36;;;;;;;0.10;0.10;;;;;;;;;;5071364;28;20028;-83
2022/07/17 01:01:06;;;;;;;0.10;0.10;;;;;;;;;;5071057;28;20035;-83
2022/07/17 01:03:32;;;;;;;0.10;0.10;;;;;;;;;;5087150;28;20028;-83
2022/07/17 01:05:58;;;;;;;0.10;0.10;;;;;;;;;;5095005;28;20028;-83
2022/07/17 01:08:24;;;;;;;0.10;0.10;;;;;;;;;;5095095;28;20038;-83
2022/07/17 01:10:51;;;;;;;0.10;0.10;;;;;;;;;;5088746;28;20020;-83
2022/07/17 01:13:18;;;;;;;0.10;0.10;;;;;;;;;;5074608;28;20028;-82
2022/07/17 01:15:44;;;;;;;0.10;0.10;;;;;;;;;;5074633;28;20027;-82
2022/07/17 01:18:11;;;;;;;0.10;0.10;;;;;;;;;;5074426;28;20020;-81
2022/07/17 01:20:38;;;;;;;0.08;0.08;;;;;;;;;;5074618;28;20043;-82
2022/07/17 01:23:05;;;;;;;0.10;0.10;;;;;;;;;;5074841;28;20031;-83
2022/07/17 01:25:31;;;;;;;0.10;0.10;;;;;;;;;;5080465;28;20107;-83
2022/07/17 01:27:57;;;;;;;0.10;0.10;;;;;;;;;;5094799;28;20043;-83
2022/07/17 01:30:23;;;;;;;0.10;0.10;;;;;;;;;;5094583;28;20484;-82
2022/07/17 01:32:50;;;;;;;0.10;0.10;;;;;;;;;;5093261;28;20024;-82
2022/07/17 01:35:17;;;;;;;0.10;0.10;;;;;;;;;;5094159;28;20020;-83
2022/07/17 01:37:43;;;;;;;0.10;0.10;;;;;;;;;;5093739;28;20028;-83
2022/07/17 01:40:12;;;;;;;0.10;0.10;;;;;;;;;;5094116;28;20103;-82
2022/07/17 01:42:39;;;;;;;0.05;0.05;;;;;;;;;;5094773;28;20063;-84
2022/07/17 01:45:05;;;;;;;0.10;0.10;;;;;;;;;;5093281;28;20024;-84
2022/07/17 01:47:31;;;;;;;0.10;0.10;;;;;;;;;;5093902;28;20061;-84
2022/07/17 01:49:57;;;;;;;0.10;0.10;;;;;;;;;;5093641;28;20499;-84
2022/07/17 01:52:24;;;;;;;0.10;0.10;;;;;;;;;;5093858;28;20081;-82
2022/07/17 01:54:51;;;;;;;1.00;1.00;;;;;;;;;;5094062;28;20488;-83
2022/07/17 01:57:17;;;;;;;0.10;0.10;;;;;;;;;;5093737;28;20480;-83
2022/07/17 01:59:43;;;;;;;0.10;0.10;;;;;;;;;;5090563;28;20500;-82
2022/07/17 02:02:10;;;;;;;0.10;0.10;;;;;;;;;;5073799;28;20031;-82
2022/07/17 02:04:36;;;;;;;0.10;0.10;;;;;;;;;;5074056;28;20580;-82
2022/07/17 02:07:03;;;;;;;0.10;0.10;;;;;;;;;;5073602;28;20393;-83
2022/07/17 02:09:29;;;;;;;0.10;0.10;;;;;;;;;;5073506;28;20039;-82
2022/07/17 02:11:55;;;;;;;0.10;0.10;;;;;;;;;;5072065;28;20047;-83
2022/07/17 02:14:22;;;;;;;0.10;0.10;;;;;;;;;;5072975;28;20477;-82
2022/07/17 02:16:48;;;;;;;0.03;0.03;;;;;;;;;;5072824;28;20217;-83
2022/07/17 02:19:14;;;;;;;0.10;0.10;;;;;;;;;;5073204;28;20577;-83
2022/07/17 02:21:40;;;;;;;0.10;0.10;;;;;;;;;;5073139;28;20110;-84
2022/07/17 02:24:06;;;;;;;0.10;0.10;;;;;;;;;;5072267;28;20032;-84
2022/07/17 02:26:32;;;;;;;0.10;0.10;;;;;;;;;;5072885;28;20109;-82
2022/07/17 02:28:58;;;;;;;0.10;0.10;;;;;;;;;;5073168;28;20082;-82
2022/07/17 02:31:24;;;;;;;0.10;0.10;;;;;;;;;;5072860;28;20431;-82
2022/07/17 02:33:50;;;;;;;0.10;0.10;;;;;;;;;;5073143;28;20032;-83
2022/07/17 02:36:16;;;;;;;0.10;0.10;;;;;;;;;;5072852;28;20504;-82
2022/07/17 02:38:42;;;;;;;0.10;0.10;;;;;;;;;;5073033;28;20035;-83
2022/07/17 02:41:09;;;;;;;0.10;0.10;;;;;;;;;;5073196;28;20100;-83
2022/07/17 02:43:35;;;;;;;0.10;0.10;;;;;;;;;;5073173;28;20025;-82
2022/07/17 02:46:01;;;;;;;0.10;0.10;;;;;;;;;;5072781;28;20103;-82
2022/07/17 02:48:27;;;;;;;0.10;0.10;;;;;;;;;;5072548;28;20072;-83
2022/07/17 02:50:53;;;;;;;0.10;0.10;;;;;;;;;;5072511;28;20024;-82
2022/07/17 02:53:19;;;;;;;0.20;0.20;;;;;;;;;;5072448;28;20032;-82
2022/07/17 02:55:45;;;;;;;0.10;0.10;;;;;;;;;;5072646;28;20024;-81
2022/07/17 02:58:11;;;;;;;0.10;0.10;;;;;;;;;;5072491;28;20492;-81
2022/07/17 03:00:37;;;;;;;0.10;0.10;;;;;;;;;;5086272;28;20032;-81
2022/07/17 03:03:04;;;;;;;0.10;0.10;;;;;;;;;;5092821;28;20020;-81
2022/07/17 03:05:30;;;;;;;0.10;0.10;;;;;;;;;;5092514;28;20027;-81
2022/07/17 03:07:56;;;;;;;0.10;0.10;;;;;;;;;;5091351;28;20032;-82
2022/07/17 03:10:22;;;;;;;0.10;0.10;;;;;;;;;;5092411;28;20384;-82
2022/07/17 03:12:48;;;;;;;0.10;0.10;;;;;;;;;;5092509;28;20357;-81
2022/07/17 03:15:15;;;;;;;0.10;0.10;;;;;;;;;;5078732;28;20103;-82
2022/07/17 03:17:41;;;;;;;0.10;0.10;;;;;;;;;;5072268;28;20067;-81
2022/07/17 03:20:08;;;;;;;0.10;0.10;;;;;;;;;;5072239;28;20111;-82
2022/07/17 03:22:34;;;;;;;0.10;0.10;;;;;;;;;;5071964;28;20103;-82
2022/07/17 03:25:00;;;;;;;0.10;0.10;;;;;;;;;;5071990;28;20028;-81
2022/07/17 03:27:26;;;;;;;0.10;0.10;;;;;;;;;;5070402;28;20078;-81
2022/07/17 03:29:52;;;;;;;0.10;0.10;;;;;;;;;;5071532;28;20040;-81
2022/07/17 03:32:18;;;;;;;0.10;0.10;;;;;;;;;;5071656;28;20099;-81
2022/07/17 03:34:44;;;;;;;0.10;0.10;;;;;;;;;;5071871;28;20104;-81
2022/07/17 03:37:11;;;;;;;0.10;0.10;;;;;;;;;;5071236;28;20430;-81
2022/07/17 03:39:37;;;;;;;0.10;0.10;;;;;;;;;;5070726;28;20366;-82
2022/07/17 03:42:03;;;;;;;0.10;0.10;;;;;;;;;;5071688;28;20104;-82
2022/07/17 03:44:29;;;;;;;0.10;0.10;;;;;;;;;;5071436;28;20028;-82
2022/07/17 03:46:55;;;;;;;0.10;0.10;;;;;;;;;;5071544;28;20036;-83
2022/07/17 03:49:21;;;;;;;0.10;0.10;;;;;;;;;;5071399;28;20400;-83
2022/07/17 03:51:48;;;;;;;0.10;0.10;;;;;;;;;;5071308;28;20028;-82
2022/07/17 03:54:14;;;;;;;0.05;0.05;;;;;;;;;;5069994;28;20032;-82
2022/07/17 03:56:41;;;;;;;0.10;0.10;;;;;;;;;;5069973;28;20025;-82
2022/07/17 03:59:07;;;;;;;0.10;0.10;;;;;;;;;;5071931;28;20028;-82
2022/07/17 04:01:33;;;;;;;0.10;0.10;;;;;;;;;;5071083;28;20023;-82
2022/07/17 04:03:59;;;;;;;0.10;0.10;;;;;;;;;;5071505;28;20028;-82
2022/07/17 04:06:25;;;;;;;0.10;0.10;;;;;;;;;;5070960;28;20050;-83
2022/07/17 04:08:51;;;;;;;0.10;0.10;;;;;;;;;;5071375;28;20488;-83
2022/07/17 04:11:17;;;;;;;0.10;0.10;;;;;;;;;;5071314;28;20025;-83
2022/07/17 04:13:43;;;;;;;0.10;0.10;;;;;;;;;;5071188;28;20021;-82
2022/07/17 04:16:09;;;;;;;0.10;0.10;;;;;;;;;;5051518;28;20119;-83
2022/07/17 04:18:36;;;;;;;0.10;0.10;;;;;;;;;;5051454;28;20035;-81
2022/07/17 04:21:06;;;;;;;0.10;0.10;;;;;;;;;;5051035;28;20017;-82
2022/07/17 04:23:32;;;;;;;0.10;0.10;;;;;;;;;;5050969;28;20431;-80
2022/07/17 04:25:58;;;;;;;0.10;0.10;;;;;;;;;;5050859;28;20524;-81
2022/07/17 04:28:24;;;;;;;0.10;0.10;;;;;;;;;;5050656;28;20393;-81
2022/07/17 04:30:50;;;;;;;0.10;0.10;;;;;;;;;;5070730;28;20028;-81
2022/07/17 04:33:17;;;;;;;0.10;0.10;;;;;;;;;;5070979;28;20430;-81
2022/07/17 04:35:43;;;;;;;0.10;0.10;;;;;;;;;;5070722;28;20085;-81
2022/07/17 04:38:09;;;;;;;0.10;0.10;;;;;;;;;;5071033;28;20025;-81
2022/07/17 04:40:36;;;;;;;0.10;0.10;;;;;;;;;;5069802;28;20186;-82
2022/07/17 04:43:02;;;;;;;0.10;0.10;;;;;;;;;;5070944;28;20021;-81
2022/07/17 04:45:28;;;;;;;0.10;0.10;;;;;;;;;;5069176;28;20044;-83
2022/07/17 04:47:54;;;;;;;0.10;0.10;;;;;;;;;;5070862;28;20039;-83
2022/07/17 04:50:21;;;;;;;0.10;0.10;;;;;;;;;;5070286;28;20028;-82
2022/07/17 04:52:47;;;;;;;0.10;0.10;;;;;;;;;;5070813;28;20195;-84
2022/07/17 04:55:13;;;;;;;0.13;0.13;;;;;;;;;;5069342;28;20028;-83
2022/07/17 04:57:39;;;;;;;0.10;0.10;;;;;;;;;;5071150;28;20023;-82
2022/07/17 05:00:06;;;;;;;0.10;0.10;;;;;;;;;;5073526;28;20056;-83
2022/07/17 05:02:32;;;;;;;0.10;0.10;;;;;;;;;;5090817;28;20028;-83
2022/07/17 05:04:58;;;;;;;0.10;0.10;;;;;;;;;;5091128;28;20024;-83
2022/07/17 05:07:24;;;;;;;0.10;0.10;;;;;;;;;;5090718;28;20036;-83
2022/07/17 05:09:50;;;;;;;0.10;0.10;;;;;;;;;;5090823;28;20131;-83
2022/07/17 05:12:16;;;;;;;0.10;0.10;;;;;;;;;;5090753;28;20028;-82
2022/07/17 05:14:42;;;;;;;0.10;0.10;;;;;;;;;;5085523;28;20099;-82
2022/07/17 05:17:08;;;;;;;0.10;0.10;;;;;;;;;;5071321;28;20099;-81
2022/07/17 05:19:35;;;;;;;0.10;0.10;;;;;;;;;;5070980;28;20020;-82
2022/07/17 05:22:01;;;;;;;0.10;0.10;;;;;;;;;;5070606;28;20036;-82
2022/07/17 05:24:27;;;;;;;0.10;0.10;;;;;;;;;;5070352;28;20032;-82
2022/07/17 05:26:53;;;;;;;0.10;0.10;;;;;;;;;;5070375;28;20504;-82
2022/07/17 05:29:20;;;;;;;0.10;0.10;;;;;;;;;;5073849;28;20020;-83
2022/07/17 05:31:46;;;;;;;0.10;0.10;;;;;;;;;;5090772;28;20032;-82
2022/07/17 05:34:12;;;;;;;0.10;0.10;;;;;;;;;;5089426;28;20427;-84
2022/07/17 05:36:38;;;;;;;0.10;0.10;;;;;;;;;;5090930;28;20024;-83
2022/07/17 05:39:04;;;;;;;0.10;0.10;;;;;;;;;;5090878;28;20488;-84
2022/07/17 05:41:31;;;;;;;0.10;0.10;;;;;;;;;;5090469;28;20028;-82
2022/07/17 05:43:57;;;;;;;0.10;0.10;;;;;;;;;;5090502;28;20036;-83
2022/07/17 05:46:23;;;;;;;0.10;0.10;;;;;;;;;;5088810;28;20028;-82
2022/07/17 05:48:49;;;;;;;0.10;0.10;;;;;;;;;;5090556;28;20544;-83
2022/07/17 05:51:15;;;;;;;0.10;0.10;;;;;;;;;;5092413;28;20103;-82
2022/07/17 05:53:41;;;;;;;0.10;0.10;;;;;;;;;;5094237;28;20067;-86
2022/07/17 05:56:07;;;;;;;0.10;0.10;;;;;;;;;;5093972;28;20032;-86
2022/07/17 05:58:33;;;;;;;0.10;0.10;;;;;;;;;;5093867;28;20027;-85
2022/07/17 06:00:59;;;;;;;0.10;0.10;;;;;;;;;;5094011;28;20043;-85
2022/07/17 06:03:25;;;;;;;0.10;0.10;;;;;;;;;;5092342;28;20088;-86
2022/07/17 06:05:51;;;;;;;0.10;0.10;;;;;;;;;;5093889;28;20489;-86
2022/07/17 06:08:17;;;;;;;0.10;0.10;;;;;;;;;;5093591;28;20035;-85
2022/07/17 06:10:43;;;;;;;0.10;0.10;;;;;;;;;;5091919;28;20024;-86
2022/07/17 06:13:09;;;;;;;0.10;0.10;;;;;;;;;;5093538;28;20150;-80
2022/07/17 06:15:35;;;;;;;0.10;0.10;;;;;;;;;;5093926;28;20024;-86
2022/07/17 06:18:02;;;;;;;0.10;0.10;;;;;;;;;;5093618;28;20095;-85
2022/07/17 06:20:28;;;;;;;0.10;0.10;;;;;;;;;;5091921;28;20028;-84
2022/07/17 06:22:54;;;;;;;0.10;0.10;;;;;;;;;;5093599;28;20514;-86
2022/07/17 06:25:20;;;;;;;0.10;0.10;;;;;;;;;;5089981;28;20036;-84
2022/07/17 06:27:46;;;;;;;0.10;0.10;;;;;;;;;;5093252;28;20070;-85
2022/07/17 06:30:13;;;;;;;0.10;0.10;;;;;;;;;;5093205;28;20052;-84
2022/07/17 06:32:39;;;;;;;0.10;0.10;;;;;;;;;;5092154;28;20027;-80
2022/07/17 06:35:06;;;;;;;0.10;0.10;;;;;;;;;;5093509;28;20028;-83
2022/07/17 06:37:32;;;;;;;0.10;0.10;;;;;;;;;;5093019;28;20031;-83
2022/07/17 06:39:58;;;;;;;0.10;0.10;;;;;;;;;;5091499;28;20399;-83
2022/07/17 06:42:24;;;;;;;0.10;0.10;;;;;;;;;;5092985;28;20095;-83
2022/07/17 06:44:50;;;;;;;0.10;0.10;;;;;;;;;;5093092;28;20051;-83
2022/07/17 06:47:16;;;;;;;0.08;0.08;;;;;;;;;;5092797;28;20395;-84
2022/07/17 06:49:43;;;;;;;0.10;0.10;;;;;;;;;;5092950;28;20028;-83
2022/07/17 06:52:09;;;;;;;0.10;0.10;;;;;;;;;;5093088;28;20016;-79
2022/07/17 06:54:35;;;;;;;0.10;0.10;;;;;;;;;;5091554;28;20103;-83
2022/07/17 06:57:01;;;;;;;0.10;0.10;;;;;;;;;;5093197;28;20138;-82
2022/07/17 06:59:27;;;;;;;0.10;0.10;;;;;;;;;;5092689;28;20609;-84
2022/07/17 07:01:53;;;;;;;0.10;0.10;;;;;;;;;;5092682;28;20020;-85
2022/07/17 07:04:20;;;;;;;0.10;0.10;;;;;;;;;;5092340;28;20107;-83
2022/07/17 07:06:46;;;;;;;0.10;0.10;;;;;;;;;;5092779;28;20099;-85
2022/07/17 07:09:12;;;;;;;0.10;0.10;;;;;;;;;;5091654;28;20585;-83
2022/07/17 07:11:38;;;;;;;0.10;0.10;;;;;;;;;;5092807;28;20026;-86
2022/07/17 07:14:04;;;;;;;0.10;0.10;;;;;;;;;;5090864;28;20063;-86
2022/07/17 07:16:30;;;;;;;0.10;0.10;;;;;;;;;;5092145;28;20020;-85
2022/07/17 07:18:56;;;;;;;0.10;0.10;;;;;;;;;;5092538;28;20054;-87
2022/07/17 07:21:26;;;;;;;0.10;0.10;;;;;;;;;;5092053;28;20063;-86
2022/07/17 07:23:52;;;;;;;0.10;0.10;;;;;;;;;;5089203;28;20430;-79
2022/07/17 07:26:18;;;;;;;0.10;0.10;;;;;;;;;;5089480;28;20029;-79
2022/07/17 07:28:44;;;;;;;0.10;0.10;;;;;;;;;;5083807;28;20460;-79
2022/07/17 07:31:10;;;;;;;0.10;0.10;;;;;;;;;;5073510;28;20016;-79
2022/07/17 07:33:36;;;;;;;0.10;0.10;;;;;;;;;;5072225;28;20439;-78
2022/07/17 07:36:03;;;;;;;0.10;0.10;;;;;;;;;;5071886;28;20017;-80
2022/07/17 07:38:29;;;;;;;0.10;0.10;;;;;;;;;;5071607;28;20360;-78
2022/07/17 07:40:55;;;;;;;0.10;0.10;;;;;;;;;;5072103;28;20095;-78
2022/07/17 07:43:21;;;;;;;0.10;0.10;;;;;;;;;;5091773;28;20035;-79
2022/07/17 07:45:47;;;;;;;0.10;0.10;;;;;;;;;;5091830;28;20077;-77
2022/07/17 07:48:14;;;;;;;0.10;0.10;;;;;;;;;;5091722;28;20044;-79
2022/07/17 07:50:40;;;;;;;0.10;0.10;;;;;;;;;;5090387;28;20027;-81
2022/07/17 07:53:06;;;;;;;0.10;0.10;;;;;;;;;;5092155;28;20055;-81
2022/07/17 07:55:32;;;;;;;0.00;0.00;;;;;;;;;;5088502;28;20020;-81
2022/07/17 07:58:02;;;;;;;0.10;0.10;;;;;;;;;;5088183;28;20109;-80
2022/07/17 08:00:28;;;;;;;0.10;0.10;;;;;;;;;;5091456;28;20084;-80
2022/07/17 08:02:54;;;;;;;0.10;0.10;;;;;;;;;;5090308;28;20020;-80
2022/07/17 08:05:23;;;;;;;0.10;0.10;;;;;;;;;;5091356;28;20028;-79
2022/07/17 08:07:49;;;;;;;0.10;0.10;;;;;;;;;;5086577;28;20082;-80
2022/07/17 08:10:15;;;;;;;0.10;0.10;;;;;;;;;;5070318;28;20016;-80
2022/07/17 08:12:41;;;;;;;0.10;0.10;;;;;;;;;;5071143;28;20038;-81
2022/07/17 08:15:07;;;;;;;0.10;0.10;;;;;;;;;;5070455;28;20036;-79
2022/07/17 08:17:33;;;;;;;0.10;0.10;;;;;;;;;;5071141;28;20028;-81
2022/07/17 08:19:59;;;;;;;0.10;0.10;;;;;;;;;;5071371;28;20032;-81
2022/07/17 08:22:25;;;;;;;0.10;0.10;;;;;;;;;;5079356;28;20031;-79
2022/07/17 08:24:51;;;;;;;0.10;0.10;;;;;;;;;;5091380;28;20024;-79
2022/07/17 08:27:17;;;;;;;0.10;0.10;;;;;;;;;;5089145;28;20625;-79
2022/07/17 08:29:43;;;;;;;0.10;0.10;;;;;;;;;;5069271;28;20028;-79
2022/07/17 08:32:10;;;;;;;0.10;0.10;;;;;;;;;;5071993;28;20044;-79
2022/07/17 08:34:36;;;;;;;0.10;0.10;;;;;;;;;;5072651;28;20025;-79
2022/07/17 08:37:03;;;;;;;0.10;0.10;;;;;;;;;;5070067;28;20031;-81
2022/07/17 08:39:29;;;;;;;0.40;0.40;;;;;;;;;;5070450;28;20032;-80
2022/07/17 08:41:54;;;;;;;1.65;1.55;;;;;;;;;;5070380;28;20381;-79
2022/07/17 08:44:20;;;;;;;0.10;0.10;;;;;;;;;;5070770;28;20033;-81
2022/07/17 08:46:47;;;;;;;0.10;0.10;;;;;;;;;;5071038;28;20032;-79
2022/07/17 08:49:14;;;;;;;0.10;0.10;;;;;;;;;;5070578;28;20481;-82
2022/07/17 08:51:40;;;;;;;0.10;0.10;;;;;;;;;;5078544;28;20518;-80
2022/07/17 08:54:06;;;;;;;0.10;0.10;;;;;;;;;;5089872;28;20032;-80
2022/07/17 08:56:32;;;;;;;0.10;0.10;;;;;;;;;;5073724;28;20021;-79
2022/07/17 08:58:58;;;;;;;0.10;0.10;;;;;;;;;;5070758;28;20480;-80
2022/07/17 09:01:25;;;;;;;0.10;0.10;;;;;;;;;;5070597;28;20020;-80
2022/07/17 09:04:06;;;;;;;0.10;0.10;;;;;;;;;;5070797;28;20032;-82
2022/07/17 09:06:32;;;;;;;0.10;0.10;;;;;;;;;;5069082;28;20097;-80
2022/07/17 09:09:03;;;;;;;0.10;0.10;;;;;;;;;;5090856;28;20028;-80
2022/07/17 09:11:29;;;;;;;0.10;0.10;;;;;;;;;;5072893;28;20033;-80
2022/07/17 09:13:56;;;;;;;0.10;0.10;;;;;;;;;;5070546;28;20040;-80
2022/07/17 09:16:22;;;;;;;0.10;0.10;;;;;;;;;;5069079;28;20134;-80
2022/07/17 09:18:49;;;;;;;0.10;0.10;;;;;;;;;;5070516;28;20031;-80
2022/07/17 09:21:22;;;;;;;0.17;0.17;;;;;;;;;;5070431;28;20043;-80
2022/07/17 09:24:01;;;;;;;0.10;0.10;;;;;;;;;;5052238;28;20029;-80
2022/07/17 09:26:27;;;;;;;0.10;0.10;;;;;;;;;;5070382;28;20063;-80
2022/07/17 09:28:54;;;;;;;0.10;0.10;;;;;;;;;;5074298;28;20362;-80
2022/07/17 09:31:29;;;;;;;0.10;0.10;;;;;;;;;;5074002;28;20455;-80
2022/07/17 09:33:56;;;;;;;0.10;0.10;;;;;;;;;;5074265;28;20029;-80
2022/07/17 09:36:22;;;;;;;0.10;0.10;;;;;;;;;;5073744;28;20020;-80
2022/07/17 09:38:52;;;;;;;0.10;0.10;;;;;;;;;;5074189;28;20037;-81
2022/07/17 09:41:20;;;;;;;0.13;0.13;;;;;;;;;;5074603;28;20100;-80
2022/07/17 09:43:57;;;;;;;0.10;0.10;;;;;;;;;;5074002;28;20051;-80
2022/07/17 09:46:34;;;;;;;0.10;0.10;;;;;;;;;;5072056;28;20479;-80
2022/07/17 09:49:01;;;;;;;0.10;0.10;;;;;;;;;;5072395;28;20496;-79
2022/07/17 09:51:28;;;;;;;0.10;0.10;;;;;;;;;;5077452;28;20530;-80
2022/07/17 09:53:59;;;;;;;0.10;0.10;;;;;;;;;;5093170;28;20028;-80
2022/07/17 09:56:31;;;;;;;0.10;0.10;;;;;;;;;;5093750;28;20085;-79
2022/07/17 09:59:02;;;;;;;0.10;0.10;;;;;;;;;;5094108;28;20028;-79
2022/07/17 10:01:28;;;;;;;0.10;0.10;;;;;;;;;;5093587;28;20384;-82
2022/07/17 10:03:54;;;;;;;0.10;0.10;;;;;;;;;;5093916;28;20039;-79
2022/07/17 10:06:22;;;;;;;0.10;0.10;;;;;;;;;;5093612;28;20027;-79
2022/07/17 10:08:48;;;;;;;0.10;0.10;;;;;;;;;;5091911;28;20065;-79
2022/07/17 10:11:19;;;;;;;0.10;0.10;;;;;;;;;;5093588;28;20453;-79
2022/07/17 10:13:46;;;;;;;0.10;0.10;;;;;;;;;;5093598;28;20016;-79
2022/07/17 10:16:13;;;;;;;0.10;0.10;;;;;;;;;;5093005;28;20118;-79
2022/07/17 10:18:44;;;;;;;0.10;0.10;;;;;;;;;;5093204;28;20035;-79
2022/07/17 10:21:10;;;;;;;0.10;0.10;;;;;;;;;;5090960;28;20522;-79
2022/07/17 10:23:36;;;;;;;0.10;0.10;;;;;;;;;;5072310;28;20016;-79
2022/07/17 10:26:02;;;;;;;0.10;0.10;;;;;;;;;;5073028;28;20032;-80
2022/07/17 10:28:45;;;;;;;0.10;0.10;;;;;;;;;;5071006;28;20037;-79
2022/07/17 10:31:22;;;;;;;0.10;0.10;;;;;;;;;;5072728;28;20107;-79
2022/07/17 10:33:58;;;;;;;0.10;0.10;;;;;;;;;;5073243;28;20114;-80
2022/07/17 10:36:38;;;;;;;0.15;0.15;;;;;;;;;;5077917;28;20032;-81
2022/07/17 10:39:30;;;;;;;0.00;0.00;;;;;;;;;;5093432;28;20028;-80
2022/07/17 10:41:57;;;;;;;0.10;0.10;;;;;;;;;;5082314;28;20413;-79
2022/07/17 10:44:27;;;;;;;0.03;0.03;;;;;;;;;;5072984;28;20024;-79
2022/07/17 10:46:53;;;;;;;0.10;0.10;;;;;;;;;;5086557;28;20032;-78
2022/07/17 10:49:19;;;;;;;0.10;0.10;;;;;;;;;;5071663;28;20146;-79
2022/07/17 10:51:46;;;;;;;0.10;0.10;;;;;;;;;;5084959;28;20054;-80
2022/07/17 10:54:15;;;;;;;0.10;0.10;;;;;;;;;;5092463;28;20035;-79
2022/07/17 10:56:41;;;;;;;0.10;0.10;;;;;;;;;;5091440;28;20020;-79
2022/07/17 10:59:10;;;;;;;0.10;0.10;;;;;;;;;;5071167;28;20027;-79
2022/07/17 11:01:36;;;;;;;0.10;0.10;;;;;;;;;;5070982;28;20546;-80
2022/07/17 11:04:04;;;;;;;0.10;0.10;;;;;;;;;;5070783;28;20032;-80
2022/07/17 11:06:32;;;;;;;0.10;0.10;;;;;;;;;;5071288;28;20111;-79
2022/07/17 11:08:57;;;;;;;0.10;0.10;;;;;;;;;;5070539;28;20107;-79
2022/07/17 11:11:36;;;;;;;0.10;0.10;;;;;;;;;;5070306;28;20583;-84
2022/07/17 11:14:08;;;;;;;0.10;0.10;;;;;;;;;;5068333;28;20479;-82
2022/07/17 11:16:34;;;;;;;0.10;0.10;;;;;;;;;;5070464;28;20028;-79
2022/07/17 11:19:00;;;;;;;0.10;0.10;;;;;;;;;;5067713;28;20017;-78
2022/07/17 11:21:26;;;;;;;0.10;0.10;;;;;;;;;;5070302;28;20102;-78
2022/07/17 11:23:53;;;;;;;0.10;0.10;;;;;;;;;;5070216;28;20024;-80
2022/07/17 11:26:20;;;;;;;0.10;0.10;;;;;;;;;;5069940;28;20033;-80
2022/07/17 11:28:46;;;;;;;0.10;0.10;;;;;;;;;;5069491;28;20446;-80
2022/07/17 11:31:20;;;;;;;0.10;0.10;;;;;;;;;;5071518;28;20085;-79
2022/07/17 11:33:47;;;;;;;0.10;0.10;;;;;;;;;;5071768;28;20090;-81
2022/07/17 11:36:19;;;;;;;0.10;0.10;;;;;;;;;;5072243;28;20021;-82
2022/07/17 11:38:45;;;;;;;0.10;0.10;;;;;;;;;;5071769;28;20099;-80
2022/07/17 11:41:12;;;;;;;0.10;0.10;;;;;;;;;;5071485;28;20028;-80
2022/07/17 11:43:41;;;;;;;0.10;0.10;;;;;;;;;;5071683;28;20032;-81
2022/07/17 11:46:08;;;;;;;0.10;0.10;;;;;;;;;;5071829;28;20056;-79
2022/07/17 11:48:34;;;;;;;0.10;0.10;;;;;;;;;;5069041;28;20526;-79
2022/07/17 11:51:00;;;;;;;0.10;0.10;;;;;;;;;;5090530;28;20438;-79
2022/07/17 11:53:33;;;;;;;0.13;0.13;;;;;;;;;;5091430;28;20028;-79
2022/07/17 11:56:00;;;;;;;0.10;0.10;;;;;;;;;;5091613;28;20032;-79
2022/07/17 11:58:26;;;;;;;0.10;0.10;;;;;;;;;;5091430;28;20045;-79
2022/07/17 12:01:02;;;;;;;0.10;0.10;;;;;;;;;;5091575;28;20069;-79
2022/07/17 12:03:28;;;;;;;0.10;0.10;;;;;;;;;;5090986;28;20028;-79
2022/07/17 12:05:54;;;;;;;0.10;0.10;;;;;;;;;;5091398;28;20028;-79
2022/07/17 12:08:20;;;;;;;0.10;0.10;;;;;;;;;;5091165;28;20081;-78
2022/07/17 12:10:49;;;;;;;0.10;0.10;;;;;;;;;;5091425;28;20032;-80
2022/07/17 12:13:15;;;;;;;0.10;0.10;;;;;;;;;;5075531;28;20028;-82
2022/07/17 12:15:42;;;;;;;0.10;0.10;;;;;;;;;;5087492;28;20031;-83
2022/07/17 12:18:20;;;;;;;0.10;0.10;;;;;;;;;;5091600;28;20141;-83
2022/07/17 12:20:47;;;;;;;0.10;0.10;;;;;;;;;;5091661;28;20020;-84
2022/07/17 12:23:28;;;;;;;0.10;0.10;;;;;;;;;;5091379;28;20039;-84
2022/07/17 12:26:23;;;;;;;0.10;0.10;;;;;;;;;;5091243;28;20024;-82
2022/07/17 12:28:49;;;;;;;0.10;0.10;;;;;;;;;;5081058;28;20039;-83
2022/07/17 12:31:16;;;;;;;0.10;0.10;;;;;;;;;;5068554;28;20028;-83
2022/07/17 12:33:42;;;;;;;0.10;0.10;;;;;;;;;;5072073;28;20017;-83
2022/07/17 12:36:08;;;;;;;0.10;0.10;;;;;;;;;;5069770;28;20399;-82
2022/07/17 12:38:35;;;;;;;0.10;0.10;;;;;;;;;;5067259;28;20067;-83
2022/07/17 12:41:01;;;;;;;0.10;0.10;;;;;;;;;;5068111;28;20488;-83
2022/07/17 12:43:27;;;;;;;0.10;0.10;;;;;;;;;;5068864;28;20361;-83
2022/07/17 12:45:53;;;;;;;0.10;0.10;;;;;;;;;;5069109;28;20024;-82
2022/07/17 12:48:19;;;;;;;0.10;0.10;;;;;;;;;;5069925;28;20098;-83
2022/07/17 12:50:45;;;;;;;0.10;0.10;;;;;;;;;;5071031;28;20423;-83
2022/07/17 12:53:11;;;;;;;0.10;0.10;;;;;;;;;;5070288;28;20052;-81
2022/07/17 12:55:37;;;;;;;0.10;0.10;;;;;;;;;;5071150;28;20032;-81
2022/07/17 12:58:04;;;;;;;0.10;0.10;;;;;;;;;;5070535;28;20099;-81
2022/07/17 13:00:30;;;;;;;0.10;0.10;;;;;;;;;;5088452;28;20067;-81
2022/07/17 13:02:56;;;;;;;0.10;0.10;;;;;;;;;;5074847;28;20445;-81
2022/07/17 13:05:22;;;;;;;0.10;0.10;;;;;;;;;;5097412;28;20039;-82
2022/07/17 13:07:49;;;;;;;7.90;7.38;;;;;;;;;;5100601;28;20115;-82
2022/07/17 13:10:15;;;;;;;0.10;0.10;;;;;;;;;;5093514;28;20113;-82
2022/07/17 13:12:41;;;;;;;0.10;0.10;;;;;;;;;;5093363;28;20392;-81
2022/07/17 13:15:07;;;;;;;0.10;0.10;;;;;;;;;;5094838;28;20031;-82
2022/07/17 13:17:36;;;;;;;0.10;0.10;;;;;;;;;;5095369;28;20418;-82
2022/07/17 13:20:02;;;;;;;0.10;0.10;;;;;;;;;;5092780;28;20085;-82
2022/07/17 13:22:28;;;;;;;0.10;0.10;;;;;;;;;;5094391;28;20036;-82
2022/07/17 13:24:54;;;;;;;0.10;0.10;;;;;;;;;;5094482;28;20043;-81
2022/07/17 13:27:20;;;;;;;0.10;0.10;;;;;;;;;;5092478;28;20092;-81
2022/07/17 13:29:46;;;;;;;0.10;0.10;;;;;;;;;;5074031;28;20460;-83
2022/07/17 13:32:12;;;;;;;0.10;0.10;;;;;;;;;;5073790;28;20024;-81
2022/07/17 13:34:38;;;;;;;0.10;0.10;;;;;;;;;;5074622;28;20063;-81
2022/07/17 13:37:05;;;;;;;0.10;0.10;;;;;;;;;;5074471;28;20035;-81
2022/07/17 13:39:31;;;;;;;0.10;0.10;;;;;;;;;;5074081;28;20385;-81
2022/07/17 13:41:57;;;;;;;0.10;0.10;;;;;;;;;;5073456;28;20512;-81
2022/07/17 13:44:23;;;;;;;0.08;0.08;;;;;;;;;;5073616;28;20444;-81
2022/07/17 13:46:49;;;;;;;0.10;0.10;;;;;;;;;;5072472;28;20103;-80
2022/07/17 13:49:15;;;;;;;0.10;0.10;;;;;;;;;;5073287;28;20089;-82
2022/07/17 13:51:41;;;;;;;0.10;0.10;;;;;;;;;;5072564;28;20020;-83
2022/07/17 13:54:07;;;;;;;0.00;0.00;;;;;;;;;;5072584;28;20099;-81
2022/07/17 13:56:33;;;;;;;0.10;0.10;;;;;;;;;;5070732;28;20021;-83
2022/07/17 13:59:00;;;;;;;0.10;0.10;;;;;;;;;;5072135;28;20052;-82
2022/07/17 14:01:27;;;;;;;0.10;0.10;;;;;;;;;;5070712;28;20029;-82
2022/07/17 14:03:53;;;;;;;0.10;0.10;;;;;;;;;;5072014;28;20104;-82
2022/07/17 14:06:19;;;;;;;0.10;0.10;;;;;;;;;;5071671;28;20028;-86
2022/07/17 14:08:45;;;;;;;0.00;0.00;;;;;;;;;;5073397;28;20033;-85
2022/07/17 14:11:12;;;;;;;0.10;0.10;;;;;;;;;;5072569;28;20024;-81
2022/07/17 14:13:38;;;;;;;0.10;0.10;;;;;;;;;;5074751;28;20060;-85
2022/07/17 14:16:05;;;;;;;0.10;0.10;;;;;;;;;;5073834;28;20025;-82
2022/07/17 14:18:31;;;;;;;0.10;0.10;;;;;;;;;;5073172;28;20032;-85
2022/07/17 14:20:57;;;;;;;0.10;0.10;;;;;;;;;;5073352;28;20020;-86
2022/07/17 14:23:23;;;;;;;0.10;0.10;;;;;;;;;;5071670;28;20040;-81
2022/07/17 14:25:49;;;;;;;0.10;0.10;;;;;;;;;;5071750;28;20024;-82
2022/07/17 14:28:15;;;;;;;0.10;0.10;;;;;;;;;;5077114;28;20032;-82
2022/07/17 14:30:41;;;;;;;0.10;0.10;;;;;;;;;;5089673;28;20396;-83
2022/07/17 14:33:07;;;;;;;0.10;0.10;;;;;;;;;;5090387;28;20034;-81
2022/07/17 14:35:34;;;;;;;0.10;0.10;;;;;;;;;;5072685;28;20052;-83
2022/07/17 14:38:00;;;;;;;0.10;0.10;;;;;;;;;;5072971;28;20108;-82
2022/07/17 14:40:26;;;;;;;0.10;0.10;;;;;;;;;;5073650;28;20028;-82